Time;durP1;ratioP1;P1;durP2;ratioP2;P2;SDS_P1;SDS_P2;PMS_P1;PMS_P2;Temp;Humidity;BMP_temperature;BMP_pressure;BME280_temperature;BME280_humidity;BME280_pressure;Samples;Min_cycle;Max_cycle;Signal;HPM_P1;HPM_P2
2022/11/13 00:00:26;;;;;;;46.00;15.35;;;;;;;;;;7394081;19;20007;-82
2022/11/13 00:02:51;;;;;;;52.60;14.30;;;;;;;;;;7391700;19;20472;-85
2022/11/13 00:05:16;;;;;;;70.35;14.38;;;;;;;;;;7395861;19;20006;-85
2022/11/13 00:07:42;;;;;;;36.38;14.23;;;;;;;;;;7392245;19;19998;-89
2022/11/13 00:10:07;;;;;;;58.42;15.45;;;;;;;;;;7387849;19;20012;-81
2022/11/13 00:12:33;;;;;;;45.35;15.25;;;;;;;;;;7388025;19;20012;-83
2022/11/13 00:14:58;;;;;;;85.53;16.48;;;;;;;;;;7392286;19;20014;-84
2022/11/13 00:17:23;;;;;;;59.42;14.50;;;;;;;;;;7391805;19;20005;-88
2022/11/13 00:19:49;;;;;;;34.35;15.10;;;;;;;;;;7386820;19;20049;-83
2022/11/13 00:22:14;;;;;;;39.80;15.50;;;;;;;;;;7387974;19;20006;-82
2022/11/13 00:24:40;;;;;;;38.70;16.15;;;;;;;;;;7394556;19;20638;-85
2022/11/13 00:27:05;;;;;;;48.85;15.50;;;;;;;;;;7392420;19;20003;-82
2022/11/13 00:29:31;;;;;;;36.63;16.38;;;;;;;;;;7387483;19;20362;-87
2022/11/13 00:31:56;;;;;;;34.50;14.60;;;;;;;;;;7392498;19;20012;-87
2022/11/13 00:34:21;;;;;;;48.10;15.48;;;;;;;;;;7393162;19;20006;-87
2022/11/13 00:36:47;;;;;;;54.25;15.65;;;;;;;;;;7392313;19;19995;-87
2022/11/13 00:39:12;;;;;;;35.85;14.77;;;;;;;;;;7390198;19;20677;-88
2022/11/13 00:41:37;;;;;;;30.65;13.80;;;;;;;;;;7391154;19;20007;-89
2022/11/13 00:44:03;;;;;;;31.35;13.60;;;;;;;;;;7390967;19;20019;-88
2022/11/13 00:46:29;;;;;;;38.03;14.57;;;;;;;;;;7387720;19;20016;-89
2022/11/13 00:48:54;;;;;;;29.27;13.02;;;;;;;;;;7388778;19;20082;-89
2022/11/13 00:51:20;;;;;;;29.20;12.85;;;;;;;;;;7389332;19;20005;-88
2022/11/13 00:53:45;;;;;;;61.03;13.80;;;;;;;;;;7390209;19;20718;-89
2022/11/13 00:56:11;;;;;;;45.17;12.65;;;;;;;;;;7390550;19;19995;-88
2022/11/13 00:58:36;;;;;;;63.80;13.48;;;;;;;;;;7391575;19;20010;-88
2022/11/13 01:01:05;;;;;;;38.92;13.60;;;;;;;;;;7391569;19;19994;-87
2022/11/13 01:03:30;;;;;;;38.85;12.57;;;;;;;;;;7391617;19;19990;-87
2022/11/13 01:05:55;;;;;;;26.40;11.95;;;;;;;;;;7392152;19;20001;-88
2022/11/13 01:08:21;;;;;;;31.15;12.80;;;;;;;;;;7391236;19;20025;-88
2022/11/13 01:10:48;;;;;;;52.92;12.95;;;;;;;;;;7391715;19;20026;-89
2022/11/13 01:13:13;;;;;;;37.00;11.73;;;;;;;;;;7387916;19;19999;-88
2022/11/13 01:15:42;;;;;;;43.70;13.98;;;;;;;;;;7389112;19;20026;-89
2022/11/13 01:18:07;;;;;;;37.22;13.02;;;;;;;;;;7389629;19;20014;-90
2022/11/13 01:20:33;;;;;;;33.08;13.00;;;;;;;;;;7388261;19;20030;-88
2022/11/13 01:22:59;;;;;;;31.63;12.30;;;;;;;;;;7384849;19;20196;-88
2022/11/13 01:25:24;;;;;;;30.23;12.38;;;;;;;;;;7388134;19;20072;-88
2022/11/13 01:27:49;;;;;;;34.33;13.80;;;;;;;;;;7389286;19;19990;-88
2022/11/13 01:30:15;;;;;;;37.85;13.95;;;;;;;;;;7389335;19;20516;-88
2022/11/13 01:32:41;;;;;;;31.15;13.65;;;;;;;;;;7387572;19;20007;-88
2022/11/13 01:35:06;;;;;;;33.17;12.30;;;;;;;;;;7389787;19;19990;-89
2022/11/13 01:37:32;;;;;;;49.22;13.85;;;;;;;;;;7390067;19;20456;-88
2022/11/13 01:39:57;;;;;;;35.80;12.80;;;;;;;;;;7389940;19;20002;-89
2022/11/13 01:42:22;;;;;;;23.77;12.75;;;;;;;;;;7392039;19;20002;-88
2022/11/13 01:45:01;;;;;;;37.00;12.52;;;;;;;;;;7414368;19;20019;-87
2022/11/13 01:47:27;;;;;;;31.95;12.48;;;;;;;;;;7404267;19;19995;-86
2022/11/13 01:49:56;;;;;;;32.45;12.52;;;;;;;;;;7408764;19;19987;-88
2022/11/13 01:52:27;;;;;;;23.30;12.50;;;;;;;;;;7410876;19;20018;-91
2022/11/13 01:54:57;;;;;;;25.35;11.38;;;;;;;;;;7413033;19;20005;-89
2022/11/13 01:57:23;;;;;;;18.27;9.68;;;;;;;;;;7422498;19;20022;-89
2022/11/13 02:00:00;;;;;;;29.42;12.55;;;;;;;;;;7428374;19;20014;-88
2022/11/13 02:02:26;;;;;;;21.73;10.82;;;;;;;;;;7422951;19;20485;-89
2022/11/13 02:04:51;;;;;;;45.47;12.70;;;;;;;;;;7416996;19;19994;-87
2022/11/13 02:07:20;;;;;;;29.13;12.15;;;;;;;;;;7403275;19;20020;-89
2022/11/13 02:09:48;;;;;;;27.23;13.00;;;;;;;;;;7402321;19;20010;-88
2022/11/13 02:12:17;;;;;;;23.95;11.95;;;;;;;;;;7397445;19;20062;-88
2022/11/13 02:14:48;;;;;;;32.55;11.75;;;;;;;;;;7399705;19;19991;-90
2022/11/13 02:17:18;;;;;;;25.93;11.70;;;;;;;;;;7398491;19;19999;-88
2022/11/13 02:19:49;;;;;;;28.25;11.95;;;;;;;;;;7396995;19;20247;-88
2022/11/13 02:22:35;;;;;;;33.88;11.50;;;;;;;;;;7394645;19;20035;-88
2022/11/13 02:25:02;;;;;;;26.73;11.70;;;;;;;;;;7396754;19;20011;-88
2022/11/13 02:27:46;;;;;;;98.70;12.02;;;;;;;;;;7396696;19;20066;-90
2022/11/13 02:30:13;;;;;;;22.58;11.07;;;;;;;;;;7397631;19;20086;-90
2022/11/13 02:32:44;;;;;;;29.27;11.20;;;;;;;;;;7394414;19;20002;-88
2022/11/13 02:35:10;;;;;;;27.42;10.48;;;;;;;;;;7395287;19;20002;-88
2022/11/13 02:37:35;;;;;;;27.25;10.88;;;;;;;;;;7396517;19;20001;-89
2022/11/13 02:40:01;;;;;;;24.65;10.45;;;;;;;;;;7397057;19;19991;-89
2022/11/13 02:42:26;;;;;;;18.40;11.38;;;;;;;;;;7393436;19;19998;-88
2022/11/13 02:44:51;;;;;;;21.08;11.05;;;;;;;;;;7395895;19;20082;-88
2022/11/13 02:47:16;;;;;;;90.10;12.02;;;;;;;;;;7395250;19;20480;-90
2022/11/13 02:49:42;;;;;;;24.05;10.23;;;;;;;;;;7395060;19;20010;-89
2022/11/13 02:52:07;;;;;;;36.83;11.93;;;;;;;;;;7394767;19;20006;-88
2022/11/13 02:54:32;;;;;;;23.08;10.43;;;;;;;;;;7395501;19;20002;-89
2022/11/13 02:56:58;;;;;;;25.80;10.80;;;;;;;;;;7395224;19;19991;-87
2022/11/13 02:59:23;;;;;;;42.53;12.75;;;;;;;;;;7395451;19;19995;-89
2022/11/13 03:01:48;;;;;;;44.75;11.55;;;;;;;;;;7393983;19;20020;-89
2022/11/13 03:04:14;;;;;;;32.95;9.95;;;;;;;;;;7400366;19;20008;-88
2022/11/13 03:06:39;;;;;;;33.38;10.55;;;;;;;;;;7411817;19;20364;-87
2022/11/13 03:09:04;;;;;;;86.30;12.55;;;;;;;;;;7401224;19;20554;-88
2022/11/13 03:11:30;;;;;;;35.00;11.02;;;;;;;;;;7395084;19;20330;-88
2022/11/13 03:13:55;;;;;;;25.10;11.60;;;;;;;;;;7395403;19;20026;-89
2022/11/13 03:16:21;;;;;;;23.50;11.35;;;;;;;;;;7394722;19;20050;-89
2022/11/13 03:18:46;;;;;;;23.83;9.90;;;;;;;;;;7394687;19;20092;-89
2022/11/13 03:21:13;;;;;;;34.85;9.82;;;;;;;;;;7396808;19;20011;-88
2022/11/13 03:23:40;;;;;;;40.15;11.35;;;;;;;;;;7394111;19;20388;-88
2022/11/13 03:26:07;;;;;;;25.88;9.88;;;;;;;;;;7396206;19;20006;-89
2022/11/13 03:28:34;;;;;;;20.23;9.10;;;;;;;;;;7411641;19;20011;-87
2022/11/13 03:30:59;;;;;;;25.33;9.45;;;;;;;;;;7422490;19;19995;-87
2022/11/13 03:33:25;;;;;;;25.35;9.20;;;;;;;;;;7413922;19;20354;-88
2022/11/13 03:35:50;;;;;;;29.77;8.48;;;;;;;;;;7413300;19;20006;-86
2022/11/13 03:38:15;;;;;;;22.60;9.43;;;;;;;;;;7409279;19;20006;-87
2022/11/13 03:40:41;;;;;;;21.65;9.15;;;;;;;;;;7410602;19;20503;-87
2022/11/13 03:43:07;;;;;;;24.83;7.97;;;;;;;;;;7411331;19;20003;-88
2022/11/13 03:45:33;;;;;;;74.20;9.27;;;;;;;;;;7408715;19;20006;-88
2022/11/13 03:47:58;;;;;;;22.60;7.13;;;;;;;;;;7396613;19;20009;-87
2022/11/13 03:50:24;;;;;;;63.65;9.80;;;;;;;;;;7394647;19;19995;-87
2022/11/13 03:52:49;;;;;;;44.63;8.93;;;;;;;;;;7395350;19;20006;-87
2022/11/13 03:55:14;;;;;;;27.38;8.15;;;;;;;;;;7396348;19;20058;-87
2022/11/13 03:57:40;;;;;;;31.98;8.20;;;;;;;;;;7395287;19;20029;-88
2022/11/13 04:00:05;;;;;;;63.92;9.35;;;;;;;;;;7393536;19;20062;-87
2022/11/13 04:02:31;;;;;;;15.73;8.60;;;;;;;;;;7390467;19;20002;-88
2022/11/13 04:04:56;;;;;;;22.63;10.05;;;;;;;;;;7392931;19;20228;-88
2022/11/13 04:07:21;;;;;;;47.17;9.65;;;;;;;;;;7393939;19;20002;-88
2022/11/13 04:09:47;;;;;;;21.95;9.40;;;;;;;;;;7393576;19;20093;-88
2022/11/13 04:12:12;;;;;;;36.83;9.35;;;;;;;;;;7391130;19;20027;-90
2022/11/13 04:14:37;;;;;;;59.42;10.13;;;;;;;;;;7391591;19;20002;-88
2022/11/13 04:17:03;;;;;;;19.83;8.93;;;;;;;;;;7391308;19;19995;-89
2022/11/13 04:19:28;;;;;;;17.10;9.30;;;;;;;;;;7393039;19;19998;-89
2022/11/13 04:21:53;;;;;;;17.45;9.40;;;;;;;;;;7390790;19;20026;-90
2022/11/13 04:24:19;;;;;;;18.40;8.43;;;;;;;;;;7392384;19;20038;-88
2022/11/13 04:26:44;;;;;;;17.45;8.38;;;;;;;;;;7409406;19;19991;-89
2022/11/13 04:29:09;;;;;;;19.90;8.57;;;;;;;;;;7408651;19;19999;-89
2022/11/13 04:31:35;;;;;;;22.83;8.88;;;;;;;;;;7392319;19;20041;-87
2022/11/13 04:34:00;;;;;;;21.45;9.02;;;;;;;;;;7393667;19;19995;-88
2022/11/13 04:36:25;;;;;;;17.23;7.78;;;;;;;;;;7394082;19;20002;-87
2022/11/13 04:38:51;;;;;;;14.30;7.60;;;;;;;;;;7393075;19;20004;-87
2022/11/13 04:44:00;;;;;;;13.52;7.13;;;;;;;;;;7394114;19;20010;-89
2022/11/13 04:46:25;;;;;;;17.70;7.22;;;;;;;;;;7391588;19;20002;-89
2022/11/13 04:48:51;;;;;;;13.90;7.97;;;;;;;;;;7391564;19;20066;-89
2022/11/13 04:51:16;;;;;;;12.05;7.07;;;;;;;;;;7391685;19;20092;-88
2022/11/13 04:53:41;;;;;;;13.32;7.13;;;;;;;;;;7392130;19;20014;-88
2022/11/13 04:56:07;;;;;;;15.45;8.30;;;;;;;;;;7392558;19;20002;-88
2022/11/13 04:58:32;;;;;;;15.00;7.93;;;;;;;;;;7391161;19;20342;-88
2022/11/13 05:00:57;;;;;;;16.55;8.48;;;;;;;;;;7392485;19;20001;-88
2022/11/13 05:03:23;;;;;;;14.82;7.45;;;;;;;;;;7389062;19;19995;-87
2022/11/13 05:05:48;;;;;;;17.42;7.93;;;;;;;;;;7391103;19;20001;-87
2022/11/13 05:08:13;;;;;;;15.30;7.25;;;;;;;;;;7391696;19;19997;-88
2022/11/13 05:10:39;;;;;;;23.15;8.30;;;;;;;;;;7391010;19;20005;-87
2022/11/13 05:13:04;;;;;;;13.95;8.23;;;;;;;;;;7388995;19;19998;-87
2022/11/13 05:15:29;;;;;;;20.45;8.52;;;;;;;;;;7391473;19;19995;-88
2022/11/13 05:17:55;;;;;;;15.77;7.32;;;;;;;;;;7390466;19;20365;-88
2022/11/13 05:20:20;;;;;;;17.90;7.80;;;;;;;;;;7392207;19;20452;-87
2022/11/13 05:22:45;;;;;;;19.80;7.85;;;;;;;;;;7389215;19;20002;-87
2022/11/13 05:25:11;;;;;;;22.10;7.72;;;;;;;;;;7392309;19;20736;-87
2022/11/13 05:27:36;;;;;;;15.77;7.68;;;;;;;;;;7400004;19;20024;-87
2022/11/13 05:30:02;;;;;;;13.35;6.55;;;;;;;;;;7404849;19;19995;-87
2022/11/13 05:32:27;;;;;;;13.73;7.40;;;;;;;;;;7397461;19;20015;-88
2022/11/13 05:34:52;;;;;;;20.65;7.15;;;;;;;;;;7397598;19;19990;-87
2022/11/13 05:37:18;;;;;;;18.58;7.15;;;;;;;;;;7397682;19;20544;-88
2022/11/13 05:39:43;;;;;;;21.63;8.40;;;;;;;;;;7397515;19;20445;-87
2022/11/13 05:42:08;;;;;;;43.70;7.43;;;;;;;;;;7400225;19;20016;-88
2022/11/13 05:44:34;;;;;;;25.05;6.60;;;;;;;;;;7398957;19;20401;-89
2022/11/13 05:46:59;;;;;;;12.52;6.38;;;;;;;;;;7399843;19;20453;-88
2022/11/13 05:49:25;;;;;;;19.38;7.80;;;;;;;;;;7412260;19;20027;-87
2022/11/13 05:51:53;;;;;;;23.33;7.25;;;;;;;;;;7421201;19;20030;-87
2022/11/13 05:54:18;;;;;;;17.35;7.70;;;;;;;;;;7418643;19;19999;-88
2022/11/13 05:56:43;;;;;;;18.35;7.50;;;;;;;;;;7421459;19;20010;-89
2022/11/13 05:59:09;;;;;;;32.55;8.13;;;;;;;;;;7427643;19;20003;-87
2022/11/13 06:01:37;;;;;;;15.95;7.97;;;;;;;;;;7426902;19;19994;-86
2022/11/13 06:04:03;;;;;;;19.75;8.32;;;;;;;;;;7404814;19;20010;-87
2022/11/13 06:06:30;;;;;;;17.30;7.80;;;;;;;;;;7396444;19;19995;-88
2022/11/13 06:08:57;;;;;;;14.45;7.43;;;;;;;;;;7395741;19;20006;-88
2022/11/13 06:11:25;;;;;;;13.90;6.88;;;;;;;;;;7396432;19;20110;-89
2022/11/13 06:13:52;;;;;;;12.95;7.22;;;;;;;;;;7395683;19;19998;-87
2022/11/13 06:16:25;;;;;;;18.98;7.78;;;;;;;;;;7396341;19;20451;-88
2022/11/13 06:18:55;;;;;;;18.38;8.27;;;;;;;;;;7396318;19;19993;-87
2022/11/13 06:21:22;;;;;;;17.75;8.38;;;;;;;;;;7395803;19;20003;-88
2022/11/13 06:23:47;;;;;;;21.27;8.60;;;;;;;;;;7396791;19;20053;-89
2022/11/13 06:26:17;;;;;;;14.88;7.68;;;;;;;;;;7397127;19;19994;-89
2022/11/13 06:28:43;;;;;;;15.68;7.53;;;;;;;;;;7396500;19;19998;-88
2022/11/13 06:31:15;;;;;;;16.58;7.90;;;;;;;;;;7396533;19;19998;-88
2022/11/13 06:33:41;;;;;;;16.60;7.95;;;;;;;;;;7397128;19;20460;-89
2022/11/13 06:36:10;;;;;;;18.13;7.55;;;;;;;;;;7400364;19;19999;-89
2022/11/13 06:38:37;;;;;;;12.18;6.78;;;;;;;;;;7399889;19;20001;-86
2022/11/13 06:41:04;;;;;;;15.70;7.88;;;;;;;;;;7398919;19;20460;-87
2022/11/13 06:43:30;;;;;;;11.98;6.20;;;;;;;;;;7416203;19;20033;-88
2022/11/13 06:45:56;;;;;;;14.88;6.60;;;;;;;;;;7403849;19;19998;-88
2022/11/13 06:48:22;;;;;;;13.75;7.72;;;;;;;;;;7397677;19;20006;-87
2022/11/13 06:50:47;;;;;;;11.75;6.35;;;;;;;;;;7400834;19;20040;-88
2022/11/13 06:53:13;;;;;;;14.50;6.82;;;;;;;;;;7397543;19;20007;-88
2022/11/13 06:55:47;;;;;;;11.32;5.60;;;;;;;;;;7399414;19;20033;-87
2022/11/13 06:58:13;;;;;;;11.88;6.60;;;;;;;;;;7398394;19;20551;-88
2022/11/13 07:00:40;;;;;;;14.65;7.32;;;;;;;;;;7401232;19;19999;-88
2022/11/13 07:03:05;;;;;;;17.33;7.78;;;;;;;;;;7400460;19;20432;-86
2022/11/13 07:05:30;;;;;;;12.90;6.32;;;;;;;;;;7403197;19;20023;-86
2022/11/13 07:07:56;;;;;;;14.38;6.25;;;;;;;;;;7401866;19;20574;-87
2022/11/13 07:10:21;;;;;;;10.73;6.07;;;;;;;;;;7419078;19;20002;-87
2022/11/13 07:12:47;;;;;;;14.30;6.60;;;;;;;;;;7415527;19;20006;-87
2022/11/13 07:15:12;;;;;;;11.80;5.97;;;;;;;;;;7399852;19;20023;-88
2022/11/13 07:17:38;;;;;;;11.63;6.35;;;;;;;;;;7396226;19;20020;-88
2022/11/13 07:20:03;;;;;;;11.00;6.03;;;;;;;;;;7403216;19;19999;-88
2022/11/13 07:22:29;;;;;;;11.13;5.60;;;;;;;;;;7395878;19;20066;-86
2022/11/13 07:24:55;;;;;;;10.75;6.43;;;;;;;;;;7397212;19;20001;-87
2022/11/13 07:27:20;;;;;;;12.77;5.88;;;;;;;;;;7391518;19;20030;-88
2022/11/13 07:29:46;;;;;;;12.30;5.90;;;;;;;;;;7392534;19;20062;-86
2022/11/13 07:32:11;;;;;;;11.38;5.93;;;;;;;;;;7395327;19;20017;-88
2022/11/13 07:34:36;;;;;;;11.93;5.57;;;;;;;;;;7405188;19;20005;-87
2022/11/13 07:37:05;;;;;;;14.18;6.32;;;;;;;;;;7403673;19;20330;-87
2022/11/13 07:39:30;;;;;;;16.42;6.43;;;;;;;;;;7403312;19;19994;-86
2022/11/13 07:41:56;;;;;;;12.95;5.93;;;;;;;;;;7413541;19;20059;-87
2022/11/13 07:44:21;;;;;;;11.65;5.72;;;;;;;;;;7412314;19;19999;-88
2022/11/13 07:46:49;;;;;;;14.32;6.93;;;;;;;;;;7406649;19;20019;-88
2022/11/13 07:49:14;;;;;;;20.30;7.68;;;;;;;;;;7414653;19;20007;-86
2022/11/13 07:51:40;;;;;;;15.18;7.10;;;;;;;;;;7389514;19;20020;-79
2022/11/13 07:54:05;;;;;;;14.85;6.85;;;;;;;;;;7386618;19;20341;-78
2022/11/13 07:56:31;;;;;;;22.73;7.88;;;;;;;;;;7384506;19;20017;-78
2022/11/13 07:58:56;;;;;;;19.15;7.90;;;;;;;;;;7388880;19;20115;-87
2022/11/13 08:01:21;;;;;;;24.50;8.20;;;;;;;;;;7386373;19;20006;-79
2022/11/13 08:03:47;;;;;;;15.45;7.72;;;;;;;;;;7388086;19;20040;-84
2022/11/13 08:06:12;;;;;;;17.63;7.55;;;;;;;;;;7387627;19;20002;-85
2022/11/13 08:08:37;;;;;;;14.23;7.18;;;;;;;;;;7395872;19;20027;-88
2022/11/13 08:11:05;;;;;;;17.38;6.78;;;;;;;;;;7390847;19;20849;-88
2022/11/13 08:13:30;;;;;;;16.27;6.20;;;;;;;;;;7386401;19;19998;-80
2022/11/13 08:16:00;;;;;;;10.82;5.75;;;;;;;;;;7388566;19;20002;-85
2022/11/13 08:18:27;;;;;;;12.77;5.75;;;;;;;;;;7387655;19;20354;-86
2022/11/13 08:20:52;;;;;;;18.60;5.60;;;;;;;;;;7395959;19;20461;-87
2022/11/13 08:23:18;;;;;;;14.38;4.68;;;;;;;;;;7391892;19;20031;-85
2022/11/13 08:25:43;;;;;;;17.63;4.57;;;;;;;;;;7407021;19;20019;-87
2022/11/13 08:28:08;;;;;;;16.48;4.93;;;;;;;;;;7406907;19;20046;-85
2022/11/13 08:30:34;;;;;;;21.08;5.43;;;;;;;;;;7408812;19;20006;-87
2022/11/13 08:32:59;;;;;;;16.63;5.13;;;;;;;;;;7389581;19;20007;-82
2022/11/13 08:35:25;;;;;;;20.48;5.38;;;;;;;;;;7386714;19;20348;-84
2022/11/13 08:37:50;;;;;;;9.35;4.50;;;;;;;;;;7384560;19;19999;-86
2022/11/13 08:40:15;;;;;;;13.18;5.10;;;;;;;;;;7390755;19;20010;-86
2022/11/13 08:42:41;;;;;;;16.20;5.38;;;;;;;;;;7396647;19;20001;-87
2022/11/13 08:45:07;;;;;;;9.02;4.65;;;;;;;;;;7390738;19;20006;-87
2022/11/13 08:47:32;;;;;;;8.23;4.38;;;;;;;;;;7389797;19;20027;-83
2022/11/13 08:49:58;;;;;;;7.80;4.32;;;;;;;;;;7386471;19;20007;-84
2022/11/13 08:52:23;;;;;;;7.88;4.65;;;;;;;;;;7386367;19;20006;-89
2022/11/13 08:54:48;;;;;;;8.52;4.32;;;;;;;;;;7388389;19;20030;-88
2022/11/13 08:57:14;;;;;;;8.18;4.65;;;;;;;;;;7387796;19;20002;-89
2022/11/13 08:59:39;;;;;;;13.60;4.82;;;;;;;;;;7383424;19;19999;-79
2022/11/13 09:02:04;;;;;;;12.55;4.85;;;;;;;;;;7392142;19;20326;-83
2022/11/13 09:04:30;;;;;;;8.85;4.63;;;;;;;;;;7397185;19;20002;-82
2022/11/13 09:06:55;;;;;;;7.28;4.60;;;;;;;;;;7396041;19;20003;-82
2022/11/13 09:09:22;;;;;;;7.63;4.43;;;;;;;;;;7393099;19;20007;-83
2022/11/13 09:11:48;;;;;;;8.20;4.70;;;;;;;;;;7402008;19;19999;-83
2022/11/13 09:14:13;;;;;;;7.57;4.85;;;;;;;;;;7407239;19;20015;-86
2022/11/13 09:16:39;;;;;;;6.72;4.57;;;;;;;;;;7404567;19;20005;-86
2022/11/13 09:19:04;;;;;;;10.85;4.85;;;;;;;;;;7398272;19;20334;-83
2022/11/13 09:21:30;;;;;;;7.05;4.47;;;;;;;;;;7390374;19;20329;-82
2022/11/13 09:23:55;;;;;;;8.30;4.75;;;;;;;;;;7395952;19;20451;-83
2022/11/13 09:26:21;;;;;;;12.95;5.65;;;;;;;;;;7398135;19;20010;-83
2022/11/13 09:28:46;;;;;;;8.13;4.80;;;;;;;;;;7403182;19;20031;-84
2022/11/13 09:31:11;;;;;;;9.40;5.85;;;;;;;;;;7400368;19;20377;-84
2022/11/13 09:33:37;;;;;;;12.25;5.65;;;;;;;;;;7394851;19;20002;-83
2022/11/13 09:36:09;;;;;;;12.38;5.90;;;;;;;;;;7395625;19;20005;-83
2022/11/13 09:38:35;;;;;;;15.43;5.72;;;;;;;;;;7394792;19;20013;-83
2022/11/13 09:41:08;;;;;;;9.48;5.60;;;;;;;;;;7393438;19;20380;-82
2022/11/13 09:43:42;;;;;;;11.70;5.65;;;;;;;;;;7394558;19;20002;-83
2022/11/13 09:46:16;;;;;;;9.38;5.07;;;;;;;;;;7399646;19;20023;-85
2022/11/13 09:48:53;;;;;;;9.43;5.45;;;;;;;;;;7401853;19;19998;-87
2022/11/13 09:51:23;;;;;;;8.95;4.60;;;;;;;;;;7397076;19;20003;-83
2022/11/13 09:53:48;;;;;;;11.75;5.20;;;;;;;;;;7395826;19;20003;-83
2022/11/13 09:56:31;;;;;;;9.48;5.00;;;;;;;;;;7392981;19;20010;-83
2022/11/13 09:59:12;;;;;;;11.63;5.07;;;;;;;;;;7393085;19;20049;-84
2022/11/13 10:02:02;;;;;;;7.15;4.90;;;;;;;;;;7396116;19;20018;-86
2022/11/13 10:05:09;;;;;;;8.33;5.17;;;;;;;;;;7411511;19;20002;-85
2022/11/13 10:07:48;;;;;;;12.43;5.47;;;;;;;;;;7398764;19;20078;-84
2022/11/13 10:10:16;;;;;;;11.85;5.63;;;;;;;;;;7398797;19;20017;-80
2022/11/13 10:12:43;;;;;;;12.07;5.47;;;;;;;;;;7418901;19;20030;-83
2022/11/13 10:15:10;;;;;;;19.40;6.18;;;;;;;;;;7408807;19;20013;-82
2022/11/13 10:17:39;;;;;;;16.70;6.25;;;;;;;;;;7407418;19;20003;-83
2022/11/13 10:20:14;;;;;;;14.73;6.55;;;;;;;;;;7394884;19;20003;-82
2022/11/13 10:23:03;;;;;;;16.85;7.15;;;;;;;;;;7393618;19;20046;-82
2022/11/13 10:25:34;;;;;;;24.48;7.80;;;;;;;;;;7396192;19;20456;-83
2022/11/13 10:28:01;;;;;;;19.63;7.28;;;;;;;;;;7398602;19;20002;-82
2022/11/13 10:30:28;;;;;;;21.83;6.68;;;;;;;;;;7404299;19;20041;-81
2022/11/13 10:33:00;;;;;;;23.95;7.13;;;;;;;;;;7423689;19;20023;-81
2022/11/13 10:35:51;;;;;;;21.90;7.13;;;;;;;;;;7398012;19;20019;-80
2022/11/13 10:38:23;;;;;;;;;;;;;;;;;;7386820;19;19999;-82
2022/11/13 10:40:49;;;;;;;20.35;6.50;;;;;;;;;;7387672;19;19914;-79
2022/11/13 10:43:21;;;;;;;17.40;6.28;;;;;;;;;;7389198;19;19998;-80
2022/11/13 10:45:58;;;;;;;14.60;5.75;;;;;;;;;;7389689;19;20015;-81
2022/11/13 10:48:32;;;;;;;9.43;5.22;;;;;;;;;;7391052;19;19999;-80
2022/11/13 10:51:03;;;;;;;16.88;5.93;;;;;;;;;;7394055;19;20357;-81
2022/11/13 10:53:40;;;;;;;13.00;5.57;;;;;;;;;;7394626;19;20006;-82
2022/11/13 10:56:26;;;;;;;12.25;5.93;;;;;;;;;;7393973;19;20002;-83
2022/11/13 10:59:12;;;;;;;12.15;5.70;;;;;;;;;;7400017;19;19999;-83
2022/11/13 11:01:39;;;;;;;10.60;5.90;;;;;;;;;;7390381;19;20003;-81
2022/11/13 11:04:06;;;;;;;8.25;5.68;;;;;;;;;;7390571;19;20066;-81
2022/11/13 11:06:35;;;;;;;10.52;5.75;;;;;;;;;;7391973;19;20010;-83
2022/11/13 11:09:25;;;;;;;9.77;6.18;;;;;;;;;;7391831;19;20073;-83
2022/11/13 11:12:15;;;;;;;9.77;6.10;;;;;;;;;;7388642;19;20492;-82
2022/11/13 11:14:42;;;;;;;9.15;5.63;;;;;;;;;;7391808;19;20007;-83
2022/11/13 11:17:11;;;;;;;8.45;5.63;;;;;;;;;;7389831;19;20031;-80
2022/11/13 11:19:39;;;;;;;9.68;6.68;;;;;;;;;;7389832;19;20003;-79
2022/11/13 11:22:15;;;;;;;13.98;6.95;;;;;;;;;;7386064;19;20018;-80
2022/11/13 11:24:55;;;;;;;12.10;6.32;;;;;;;;;;7391149;19;20026;-80
2022/11/13 11:27:27;;;;;;;9.88;6.50;;;;;;;;;;7389530;19;20355;-81
2022/11/13 11:30:12;;;;;;;9.10;6.00;;;;;;;;;;7391829;19;20034;-80
2022/11/13 11:32:41;;;;;;;12.10;6.28;;;;;;;;;;7386955;19;20063;-80
2022/11/13 11:35:30;;;;;;;10.93;6.47;;;;;;;;;;7388288;19;20006;-78
2022/11/13 11:38:08;;;;;;;12.95;7.10;;;;;;;;;;7386670;19;20501;-78
2022/11/13 11:40:41;;;;;;;10.45;6.20;;;;;;;;;;7384201;19;20338;-80
2022/11/13 11:43:18;;;;;;;12.10;6.25;;;;;;;;;;7381384;19;20134;-80
2022/11/13 11:45:45;;;;;;;15.48;6.68;;;;;;;;;;7386088;19;20002;-80
2022/11/13 11:48:17;;;;;;;10.75;6.43;;;;;;;;;;7381516;19;20002;-79
2022/11/13 11:51:20;;;;;;;12.05;6.28;;;;;;;;;;7384233;19;20018;-79
2022/11/13 11:53:59;;;;;;;17.15;6.88;;;;;;;;;;7382889;19;20006;-77
2022/11/13 11:56:25;;;;;;;14.43;7.10;;;;;;;;;;7387960;19;20003;-77
2022/11/13 11:59:07;;;;;;;12.60;7.03;;;;;;;;;;7387834;19;20022;-79
2022/11/13 12:01:59;;;;;;;16.60;7.70;;;;;;;;;;7388390;19;20082;-78
2022/11/13 12:04:37;;;;;;;12.57;6.82;;;;;;;;;;7386796;19;20006;-78
2022/11/13 12:07:21;;;;;;;13.93;6.78;;;;;;;;;;7386674;19;20009;-78
2022/11/13 12:10:01;;;;;;;15.48;6.57;;;;;;;;;;7387914;19;20006;-79
2022/11/13 12:12:36;;;;;;;13.47;6.27;;;;;;;;;;7384440;19;20007;-79
2022/11/13 12:15:09;;;;;;;13.30;6.50;;;;;;;;;;7387825;19;20002;-78
2022/11/13 12:18:07;;;;;;;13.38;6.50;;;;;;;;;;7387096;19;20146;-78
2022/11/13 12:20:42;;;;;;;12.70;6.63;;;;;;;;;;7387145;19;20027;-78
2022/11/13 12:23:07;;;;;;;14.95;6.53;;;;;;;;;;7385489;19;20037;-78
2022/11/13 12:25:43;;;;;;;13.38;7.35;;;;;;;;;;7389836;19;19995;-78
2022/11/13 12:28:27;;;;;;;12.07;6.82;;;;;;;;;;7388437;19;19994;-78
2022/11/13 12:31:28;;;;;;;13.60;6.55;;;;;;;;;;7387590;19;20066;-78
2022/11/13 12:34:24;;;;;;;11.93;6.13;;;;;;;;;;7390633;19;20003;-77
2022/11/13 12:36:51;;;;;;;11.57;6.43;;;;;;;;;;7384197;19;19998;-76
2022/11/13 12:39:50;;;;;;;10.80;6.22;;;;;;;;;;7381851;19;20021;-80
2022/11/13 12:42:45;;;;;;;10.18;5.80;;;;;;;;;;7392453;19;20007;-78
2022/11/13 12:45:33;;;;;;;9.88;5.53;;;;;;;;;;7392688;19;20009;-78
2022/11/13 12:48:17;;;;;;;10.55;5.20;;;;;;;;;;7390534;19;20253;-80
2022/11/13 12:50:43;;;;;;;10.55;5.57;;;;;;;;;;7387487;19;20006;-88
2022/11/13 12:53:11;;;;;;;10.18;5.20;;;;;;;;;;7406418;19;20135;-83
2022/11/13 12:55:39;;;;;;;8.93;5.28;;;;;;;;;;7404433;19;20003;-87
2022/11/13 12:58:26;;;;;;;8.43;4.78;;;;;;;;;;7402164;19;20006;-85
2022/11/13 13:01:10;;;;;;;7.60;4.82;;;;;;;;;;7396100;19;19999;-86
2022/11/13 13:04:03;;;;;;;8.43;5.50;;;;;;;;;;7391857;19;20018;-85
2022/11/13 13:07:13;;;;;;;8.63;4.57;;;;;;;;;;7394538;19;20019;-85
2022/11/13 13:09:54;;;;;;;8.38;4.82;;;;;;;;;;7397164;19;20003;-86
2022/11/13 13:12:43;;;;;;;11.15;4.78;;;;;;;;;;7394988;19;20011;-84
2022/11/13 13:15:27;;;;;;;8.75;4.90;;;;;;;;;;7397846;19;20011;-86
2022/11/13 13:18:11;;;;;;;7.78;4.85;;;;;;;;;;7399422;19;20031;-83
2022/11/13 13:20:45;;;;;;;8.70;5.10;;;;;;;;;;7394337;19;20014;-85
2022/11/13 13:23:12;;;;;;;8.65;4.40;;;;;;;;;;7392931;19;19999;-82
2022/11/13 13:25:38;;;;;;;10.43;4.72;;;;;;;;;;7393496;19;20018;-82
2022/11/13 13:28:07;;;;;;;7.13;4.15;;;;;;;;;;7393270;19;20035;-83
2022/11/13 13:30:50;;;;;;;7.28;4.30;;;;;;;;;;7391280;19;20007;-83
2022/11/13 13:33:40;;;;;;;8.13;4.90;;;;;;;;;;7393856;19;20003;-82
2022/11/13 13:36:31;;;;;;;6.68;4.30;;;;;;;;;;7394941;19;20039;-83
2022/11/13 13:39:01;;;;;;;7.28;4.28;;;;;;;;;;7395560;19;20006;-86
2022/11/13 13:42:05;;;;;;;8.18;4.60;;;;;;;;;;7399306;19;20072;-87
2022/11/13 13:44:51;;;;;;;8.23;4.40;;;;;;;;;;7397286;19;19998;-93
2022/11/13 13:47:24;;;;;;;7.45;4.28;;;;;;;;;;7397118;19;20007;-88
2022/11/13 13:49:50;;;;;;;6.80;4.15;;;;;;;;;;7399062;19;20034;-86
2022/11/13 13:52:22;;;;;;;7.85;4.15;;;;;;;;;;7398629;19;20050;-87
2022/11/13 13:54:48;;;;;;;7.50;4.20;;;;;;;;;;7403663;19;20007;-88
2022/11/13 13:57:15;;;;;;;9.43;4.55;;;;;;;;;;7392245;19;20009;-87
2022/11/13 13:59:43;;;;;;;9.07;4.43;;;;;;;;;;7386970;19;20006;-87
2022/11/13 14:02:21;;;;;;;8.65;4.30;;;;;;;;;;7390059;19;19998;-87
2022/11/13 14:04:49;;;;;;;8.07;4.10;;;;;;;;;;7389520;19;20026;-86
2022/11/13 14:07:29;;;;;;;13.82;4.32;;;;;;;;;;7390490;19;20023;-88
2022/11/13 14:10:27;;;;;;;10.45;4.45;;;;;;;;;;7393801;19;20016;-90
2022/11/13 14:12:54;;;;;;;7.15;4.15;;;;;;;;;;7390472;19;20460;-89
2022/11/13 14:15:22;;;;;;;10.93;4.18;;;;;;;;;;7406445;19;20003;-89
2022/11/13 14:17:48;;;;;;;7.82;4.35;;;;;;;;;;7423617;19;20002;-89
2022/11/13 14:20:14;;;;;;;8.35;4.88;;;;;;;;;;7424197;19;20010;-88
2022/11/13 14:22:41;;;;;;;10.02;5.20;;;;;;;;;;7422538;19;20006;-89
2022/11/13 14:25:24;;;;;;;10.35;4.45;;;;;;;;;;7425862;19;19987;-89
2022/11/13 14:27:50;;;;;;;8.30;4.68;;;;;;;;;;7427280;19;19998;-89
2022/11/13 14:30:27;;;;;;;14.93;5.28;;;;;;;;;;7425857;19;20001;-89
2022/11/13 14:32:53;;;;;;;10.60;5.28;;;;;;;;;;7410785;19;20002;-88
2022/11/13 14:35:22;;;;;;;9.50;5.13;;;;;;;;;;7412651;19;20016;-89
2022/11/13 14:37:47;;;;;;;14.82;5.72;;;;;;;;;;7399579;19;20010;-88
2022/11/13 14:40:29;;;;;;;13.32;5.50;;;;;;;;;;7393784;19;20002;-89
2022/11/13 14:42:59;;;;;;;10.07;5.03;;;;;;;;;;7390224;19;20472;-89
2022/11/13 14:45:27;;;;;;;10.65;5.32;;;;;;;;;;7392417;19;20006;-88